Strona główna
METAR-TAF:

METAR-TAF

Lotnisko :

Budapeszt, Węgry

Port lotniczy Budapeszt im. Ferenca Liszta

Szerokość geograficzna: 47-26N, Długość geograficzna: 019-16E, wysokość: 151 m

Aktualna obserwacja pogody

Raport powstał 18 minut temu, godzina 17:00 UTC
Wiatr 8 kt od zachód
Temperatura 23°C
Wilgotność 44%
Ciśnienie 1023 hPa
Widzialność 10 km lub więcej
Brak chmur poniżej 1500 m i brak chmur cumulonimbus

METAR: LHBP 191700Z 27008KT CAVOK 23/10 Q1023 NOSIG

czas: 19:18 (17:18 UTC)

Prognoza

Raport powstał 6 godziny i 3 minut temu, godzina 11:15 UTC
Prognoza ważna od 19 godzina 12 UTC do 20 godzina 12 UTC
Wiatr 9 kt od zachód
Widzialność 10 km lub więcej
Brak chmur poniżej 1500 m i brak chmur cumulonimbus
Stopniowe zmiany
od 19 godzina 12 UTC do 19 godzina 13 UTC
Wiatr 11 kt od północno-północny zachód
Stopniowe zmiany
od 19 godzina 21 UTC do 19 godzina 24 UTC
Wiatr 8 kt od północny wschód

TAF: LHBP 191115Z 1912/2012 27009KT CAVOK BECMG 1912/1913 34011KT BECMG 1921/1924 04008KT

Obserwacja i prognoza pogody dla ponad 4000 lotnisk (raport METAR i TAF).

Dostępne stacje oznaczono żółtymi i czerwonymi punktami na mapie.

Najedź kursorem aby zobaczyć nazwę stacji.

Kliknij aby zobaczyć obserwacje i prognozy pogody.

Aby zmienić mapę: kliknij na zielony przycisk z czarnym krzyżykiem, aby powiększyć; na zielony przycisk z myślnikiem, aby pomniejszyć; na zielone strzałki, aby przejść do map sąsiednich.


METAR-TAF: